Saturday, November 18, 2017, 5:58 PM EST
Back to Local

KLOM, Philadelphia, Wings Field Airport

Location: Blue Bell, PA, United States Lat: 40.138
Local Time: 5:58 PM EST (22:58 GMT) Lon: -75.265
Time Zone: US/Eastern Elev: 301 ft

Show me the last for .
Show Decoded

2017-11-18 17:35 METAR KLOM 182235Z AUTO 16003KT 5SM BKN050 OVC065 07/07 A2963 RMK AO1 =
2017-11-18 17:15 METAR KLOM 182215Z AUTO 00000KT 2SM SCT025 SCT045 OVC060 06/06 A2963 RMK AO1 =
2017-11-18 16:55 METAR KLOM 182155Z AUTO 00000KT 2SM SCT047 BKN060 OVC090 06/06 A2964 RMK AO1 =
2017-11-18 16:35 METAR KLOM 182135Z AUTO 00000KT 2 1/2SM SCT049 BKN060 OVC090 06/06 A2965 RMK AO1
                 =
2017-11-18 16:15 METAR KLOM 182115Z AUTO 00000KT 4SM SCT038 BKN055 OVC070 07/07 A2965 RMK AO1 =
2017-11-18 15:55 METAR KLOM 182055Z AUTO 00000KT 4SM SCT032 BKN055 OVC070 07/06 A2966 RMK AO1 =
2017-11-18 15:35 METAR KLOM 182035Z AUTO 00000KT 4SM SCT033 SCT045 OVC055 07/06 A2967 RMK AO1 =
2017-11-18 15:15 METAR KLOM 182015Z AUTO 00000KT 5SM SCT033 OVC055 07/06 A2969 RMK AO1 =
2017-11-18 14:55 METAR KLOM 181955Z AUTO 00000KT 10SM BKN055 BKN070 OVC080 07/06 A2969 RMK AO1 =
2017-11-18 14:35 METAR KLOM 181935Z AUTO 18003KT 7SM SCT043 BKN065 OVC075 07/06 A2969 RMK AO1 =
2017-11-18 14:15 METAR KLOM 181915Z AUTO 00000KT 7SM SCT047 BKN065 OVC075 07/05 A2970 RMK AO1 =
2017-11-18 13:55 METAR KLOM 181855Z AUTO 17004KT 7SM OVC055 07/05 A2971 RMK AO1 =
2017-11-18 13:35 METAR KLOM 181835Z AUTO 00000KT 7SM OVC055 07/05 A2974 RMK AO1 =
2017-11-18 13:15 METAR KLOM 181815Z AUTO 00000KT 7SM SCT045 BKN060 OVC075 07/04 A2974 RMK AO1 =
2017-11-18 12:55 METAR KLOM 181755Z AUTO 19005KT 10SM SCT055 BKN075 OVC090 07/03 A2976 RMK AO1 =
2017-11-18 12:35 METAR KLOM 181735Z AUTO 19004KT 10SM SCT075 BKN090 08/03 A2978 RMK AO1 =
2017-11-18 12:15 METAR KLOM 181715Z AUTO 21006KT 10SM SCT036 SCT060 OVC090 08/03 A2979 RMK AO1 =
2017-11-18 11:55 METAR KLOM 181655Z AUTO 18011G14KT 10SM SCT070 OVC090 08/02 A2982 RMK AO1 =
2017-11-18 11:35 METAR KLOM 181635Z AUTO 19005KT 10SM BKN100 08/02 A2983 RMK AO1 =
2017-11-18 11:15 METAR KLOM 181615Z AUTO 19008KT 10SM BKN110 08/02 A2984 RMK AO1 =
2017-11-18 10:55 METAR KLOM 181555Z AUTO 17005KT 10SM SCT110 08/02 A2986 RMK AO1 =
2017-11-18 10:35 METAR KLOM 181535Z AUTO 18004KT 10SM CLR 07/02 A2989 RMK AO1 =
2017-11-18 10:15 METAR KLOM 181515Z AUTO 19005KT 10SM CLR 06/02 A2990 RMK AO1 =
2017-11-18 09:55 METAR KLOM 181455Z AUTO 19006KT 10SM CLR 06/02 A2990 RMK AO1 =
2017-11-18 09:35 METAR KLOM 181435Z AUTO 20003KT 10SM CLR 05/01 A2991 RMK AO1 =
2017-11-18 09:15 METAR KLOM 181415Z AUTO 16003KT 10SM CLR 05/01 A2992 RMK AO1 =
2017-11-18 08:55 METAR KLOM 181355Z AUTO 18003KT 10SM CLR 04/01 A2993 RMK AO1 =
2017-11-18 08:35 METAR KLOM 181335Z AUTO 00000KT 10SM CLR 03/01 A2993 RMK AO1 =
2017-11-18 08:15 METAR KLOM 181315Z AUTO 00000KT 10SM CLR 02/00 A2995 RMK AO1 =
2017-11-18 07:55 METAR KLOM 181255Z AUTO 00000KT 10SM CLR 01/00 A2995 RMK AO1 =
2017-11-18 07:35 METAR KLOM 181235Z AUTO 00000KT 10SM CLR 00/00 A2996 RMK AO1 =
2017-11-18 07:15 METAR KLOM 181215Z AUTO 00000KT 10SM CLR M02/M02 A2996 RMK AO1 =
2017-11-18 06:55 METAR KLOM 181155Z AUTO 00000KT 10SM CLR M03/M03 A2997 RMK AO1 =
2017-11-18 06:35 METAR KLOM 181135Z AUTO 00000KT 10SM CLR M03/M03 A2998 RMK AO1 =
2017-11-18 06:15 METAR KLOM 181115Z AUTO 00000KT 10SM CLR M03/M03 A2998 RMK AO1 =
2017-11-18 05:55 METAR KLOM 181055Z AUTO 00000KT 10SM CLR M04/M04 A2999 RMK AO1 =
2017-11-18 05:35 METAR KLOM 181035Z AUTO 00000KT 10SM CLR M04/M04 A3000 RMK AO1 =
2017-11-18 05:15 METAR KLOM 181015Z AUTO 00000KT 10SM CLR M04/M04 A3001 RMK AO1 =
2017-11-18 04:55 METAR KLOM 180955Z AUTO 00000KT 10SM CLR M04/M04 A3002 RMK AO1 =
2017-11-18 04:35 METAR KLOM 180935Z AUTO 00000KT 10SM CLR M03/M04 A3003 RMK AO1 =
2017-11-18 04:15 METAR KLOM 180915Z AUTO 00000KT 10SM CLR M03/M03 A3002 RMK AO1 =
2017-11-18 03:55 METAR KLOM 180855Z AUTO 00000KT 10SM CLR M03/M03 A3001 RMK AO1 =
2017-11-18 03:35 METAR KLOM 180835Z AUTO 00000KT 10SM CLR M03/M03 A3001 RMK AO1 =
2017-11-18 03:15 METAR KLOM 180815Z AUTO 00000KT 10SM CLR M03/M03 A3002 RMK AO1 =
2017-11-18 02:55 METAR KLOM 180755Z AUTO 00000KT 10SM CLR M03/M04 A3002 RMK AO1 =
2017-11-18 02:35 METAR KLOM 180735Z AUTO 00000KT 10SM CLR M03/M03 A3003 RMK AO1 =
2017-11-18 02:15 METAR KLOM 180715Z AUTO 00000KT 10SM CLR M02/M03 A3004 RMK AO1 =
2017-11-18 01:55 METAR KLOM 180655Z AUTO 00000KT 10SM CLR M02/M02 A3006 RMK AO1 =
2017-11-18 01:35 METAR KLOM 180635Z AUTO 00000KT 10SM CLR M01/M03 A3007 RMK AO1 =
2017-11-18 01:15 METAR KLOM 180615Z AUTO 00000KT 10SM CLR M02/M03 A3007 RMK AO1 =
2017-11-18 00:55 METAR KLOM 180555Z AUTO 00000KT 10SM CLR M02/M02 A3007 RMK AO1 =
2017-11-18 00:35 METAR KLOM 180535Z AUTO 00000KT 10SM CLR M02/M03 A3008 RMK AO1 =
2017-11-18 00:15 METAR KLOM 180515Z AUTO 00000KT 10SM CLR M03/M03 A3008 RMK AO1 =
2017-11-17 23:55 METAR KLOM 180455Z AUTO 00000KT 10SM CLR M02/M03 A3009 RMK AO1 =
2017-11-17 23:35 METAR KLOM 180435Z AUTO 00000KT 10SM CLR M02/M03 A3010 RMK AO1 =
2017-11-17 23:15 METAR KLOM 180415Z AUTO 00000KT 10SM CLR M02/M02 A3010 RMK AO1 =
2017-11-17 22:55 METAR KLOM 180355Z AUTO 00000KT 10SM CLR M03/M03 A3011 RMK AO1 =
2017-11-17 22:35 METAR KLOM 180335Z AUTO 00000KT 10SM CLR M02/M03 A3012 RMK AO1 =
2017-11-17 22:15 METAR KLOM 180315Z AUTO 00000KT 10SM CLR M02/M03 A3012 RMK AO1 =
2017-11-17 21:55 METAR KLOM 180255Z AUTO 00000KT 10SM CLR M02/M03 A3012 RMK AO1 =
2017-11-17 21:35 METAR KLOM 180235Z AUTO 00000KT 10SM CLR M01/M03 A3011 RMK AO1 =
2017-11-17 21:15 METAR KLOM 180215Z AUTO 00000KT 10SM CLR 00/M02 A3012 RMK AO1 =
2017-11-17 20:55 METAR KLOM 180155Z AUTO 00000KT 10SM CLR 00/M02 A3012 RMK AO1 =
2017-11-17 20:35 METAR KLOM 180135Z AUTO 00000KT 10SM CLR 00/M02 A3012 RMK AO1 =
2017-11-17 20:15 METAR KLOM 180115Z AUTO 00000KT 10SM CLR 00/M03 A3013 RMK AO1 =
2017-11-17 19:55 METAR KLOM 180055Z AUTO 00000KT 10SM CLR 00/M03 A3012 RMK AO1 =
2017-11-17 19:35 METAR KLOM 180035Z AUTO 00000KT 10SM CLR 00/M02 A3012 RMK AO1 =
2017-11-17 19:15 METAR KLOM 180015Z AUTO 00000KT 10SM CLR 00/M02 A3013 RMK AO1 =
2017-11-17 18:55 METAR KLOM 172355Z AUTO 00000KT 10SM CLR 00/M03 A3014 RMK AO1 =
2017-11-17 18:35 METAR KLOM 172335Z AUTO 00000KT 10SM CLR 00/M03 A3013 RMK AO1 =
2017-11-17 18:15 METAR KLOM 172315Z AUTO 00000KT 10SM CLR 00/M02 A3012 RMK AO1 =

Support USWX by starting your Amazon purchase here.